createdAt,value
2022-10-17T00:04:50.404Z,5.23
2022-10-17T00:09:52.573Z,4.51
2022-10-17T00:14:54.884Z,5.06
2022-10-17T00:20:15.693Z,5.35
2022-10-17T00:25:18.186Z,5.19
2022-10-17T00:30:20.379Z,5.28
2022-10-17T00:35:22.497Z,5.12
2022-10-17T00:40:24.700Z,4.98
2022-10-17T00:45:32.076Z,5.45
2022-10-17T00:50:35.674Z,5.32
2022-10-17T00:55:47.995Z,5.08
2022-10-17T01:00:57.946Z,4.98
2022-10-17T01:06:02.415Z,5.14
2022-10-17T01:11:23.478Z,5.24
2022-10-17T01:16:29.722Z,5.35
2022-10-17T01:22:00.875Z,5.28
2022-10-17T01:27:11.128Z,5.32
2022-10-17T01:32:39.419Z,5.35
2022-10-17T01:38:11.200Z,5.24
2022-10-17T01:43:39.598Z,5.33
2022-10-17T01:48:43.625Z,5.00
2022-10-17T01:54:00.771Z,5.15
2022-10-17T01:59:12.530Z,5.07
2022-10-17T02:04:33.373Z,5.10
2022-10-17T02:09:54.149Z,4.95
2022-10-17T02:15:11.273Z,5.29
2022-10-17T02:20:16.592Z,5.24
2022-10-17T02:25:22.669Z,5.19
2022-10-17T02:30:41.926Z,4.83
2022-10-17T02:35:48.084Z,4.38
2022-10-17T02:40:52.036Z,4.74
2022-10-17T02:45:54.962Z,5.13
2022-10-17T02:51:15.756Z,5.20
2022-10-17T02:56:19.945Z,5.03
2022-10-17T03:01:22.334Z,4.67
2022-10-17T03:06:24.724Z,5.13
2022-10-17T03:11:27.243Z,4.89
2022-10-17T03:16:29.675Z,5.13
2022-10-17T03:21:50.496Z,4.82
2022-10-17T03:27:11.411Z,5.12
2022-10-17T03:32:15.385Z,5.02
2022-10-17T03:37:17.783Z,4.95
2022-10-17T03:42:20.409Z,4.87
2022-10-17T03:47:22.891Z,4.74
2022-10-17T03:52:26.211Z,4.97
2022-10-17T03:57:29.201Z,4.93
2022-10-17T04:02:49.972Z,4.84
2022-10-17T04:08:13.027Z,5.02
2022-10-17T04:13:35.555Z,5.16
2022-10-17T04:18:37.846Z,4.97
2022-10-17T04:23:40.285Z,5.04
2022-10-17T04:28:53.384Z,4.83
2022-10-17T04:33:56.179Z,4.99
2022-10-17T04:38:58.474Z,5.10
2022-10-17T04:44:01.141Z,4.68
2022-10-17T04:49:05.827Z,4.92
2022-10-17T04:54:08.641Z,4.77
2022-10-17T04:59:16.711Z,5.06
2022-10-17T05:04:23.930Z,4.95
2022-10-17T05:09:33.638Z,4.78
2022-10-17T05:14:35.993Z,4.94
2022-10-17T05:19:38.253Z,5.03
2022-10-17T05:24:41.926Z,4.96
2022-10-17T05:30:04.004Z,5.24
2022-10-17T05:35:09.267Z,5.32
2022-10-17T05:40:12.953Z,5.35
2022-10-17T05:45:16.713Z,5.46
2022-10-17T05:50:21.824Z,5.21
2022-10-17T05:55:42.450Z,5.37
2022-10-17T06:06:12.085Z,5.47
2022-10-17T06:11:37.025Z,5.25
2022-10-17T06:16:40.742Z,5.36
2022-10-17T06:21:43.092Z,5.31
2022-10-17T06:27:11.004Z,5.50
2022-10-17T06:32:16.171Z,5.74
2022-10-17T06:37:22.356Z,5.54
2022-10-17T06:42:24.796Z,5.65
2022-10-17T06:48:09.057Z,5.73
2022-10-17T06:53:34.338Z,5.87
2022-10-17T06:59:00.784Z,5.68
2022-10-17T07:04:28.585Z,5.97
2022-10-17T07:09:31.867Z,5.76
2022-10-17T07:14:35.647Z,5.93
2022-10-17T07:19:37.875Z,6.10
2022-10-17T07:24:40.210Z,5.92
2022-10-17T07:29:50.452Z,5.93
2022-10-17T07:35:10.862Z,6.28
2022-10-17T07:40:14.007Z,6.29
2022-10-17T07:45:18.598Z,5.92
2022-10-17T07:50:21.788Z,6.18
2022-10-17T07:55:24.098Z,6.22
2022-10-17T08:00:27.321Z,6.21
2022-10-17T08:05:30.291Z,6.24
2022-10-17T08:10:32.641Z,6.16
2022-10-17T08:15:34.890Z,6.26
2022-10-17T08:20:37.403Z,6.20
2022-10-17T08:25:40.201Z,6.19
2022-10-17T08:30:42.398Z,6.37
2022-10-17T08:35:44.566Z,6.40
2022-10-17T08:40:49.781Z,6.60
2022-10-17T08:45:55.538Z,6.77
2022-10-17T08:51:11.336Z,6.02
2022-10-17T08:56:44.470Z,6.56
2022-10-17T09:02:10.986Z,6.48
2022-10-17T09:07:13.091Z,6.59
2022-10-17T09:12:23.031Z,6.57
2022-10-17T09:17:52.885Z,6.42
2022-10-17T09:23:16.786Z,6.60
2022-10-17T09:28:35.403Z,6.59
2022-10-17T09:33:53.751Z,6.52
2022-10-17T09:39:01.724Z,6.32
2022-10-17T09:44:25.010Z,6.37
2022-10-17T09:49:34.124Z,6.31
2022-10-17T09:54:48.323Z,6.47
2022-10-17T10:00:02.538Z,6.46
2022-10-17T10:05:19.329Z,6.20
2022-10-17T10:10:27.854Z,5.98
2022-10-17T10:15:41.327Z,6.18
2022-10-17T10:20:47.017Z,6.16
2022-10-17T10:25:53.052Z,6.28
2022-10-17T10:30:56.362Z,6.40
2022-10-17T10:36:03.846Z,6.37
2022-10-17T10:41:08.516Z,6.38
2022-10-17T10:46:26.902Z,6.50
2022-10-17T10:51:49.414Z,6.37
2022-10-17T10:56:54.729Z,6.62
2022-10-17T11:02:00.456Z,6.65
2022-10-17T11:07:06.870Z,6.67
2022-10-17T11:12:14.037Z,6.68
2022-10-17T11:17:26.089Z,6.47
2022-10-17T11:22:32.413Z,6.69
2022-10-17T11:27:35.431Z,6.27
2022-10-17T11:32:45.536Z,6.42
2022-10-17T11:38:11.406Z,6.21
2022-10-17T11:43:20.408Z,6.55
2022-10-17T11:48:30.838Z,6.43
2022-10-17T11:54:04.984Z,6.67
2022-10-17T11:59:25.135Z,6.77
2022-10-17T12:05:10.688Z,6.54
2022-10-17T12:10:39.766Z,6.59
2022-10-17T12:16:19.116Z,6.90
2022-10-17T12:21:22.733Z,5.92
2022-10-17T12:26:29.694Z,6.75
2022-10-17T12:31:34.096Z,6.67
2022-10-17T12:36:38.178Z,6.88
2022-10-17T12:41:43.237Z,6.89
2022-10-17T12:47:08.198Z,6.90
2022-10-17T12:52:16.497Z,6.92
2022-10-17T12:57:30.302Z,6.72
2022-10-17T13:02:33.449Z,6.84
2022-10-17T13:07:36.500Z,6.83
2022-10-17T13:12:41.362Z,6.76
2022-10-17T13:18:02.238Z,6.50
2022-10-17T13:23:04.466Z,6.90
2022-10-17T13:28:12.964Z,6.67
2022-10-17T13:33:47.619Z,6.97
2022-10-17T13:39:15.072Z,6.59
2022-10-17T13:44:20.271Z,7.23
2022-10-17T13:49:35.578Z,7.11
2022-10-17T13:54:43.049Z,6.78
2022-10-17T13:59:47.958Z,7.04
2022-10-17T14:05:18.132Z,7.10
2022-10-17T14:10:26.434Z,6.81
2022-10-17T14:15:30.315Z,6.53
2022-10-17T14:26:22.693Z,6.75
2022-10-17T14:31:33.622Z,6.78
2022-10-17T14:36:42.847Z,6.90
2022-10-17T14:41:46.492Z,6.83
2022-10-17T14:46:52.921Z,6.70
2022-10-17T14:52:14.885Z,7.02
2022-10-17T14:57:34.639Z,7.00
2022-10-17T15:02:36.798Z,6.58
2022-10-17T15:07:57.273Z,6.79
2022-10-17T15:13:26.165Z,6.69
2022-10-17T15:18:41.454Z,6.69
2022-10-17T15:23:43.758Z,6.65
2022-10-17T15:28:47.650Z,6.75
2022-10-17T15:33:50.527Z,6.70
2022-10-17T15:38:55.765Z,7.09
2022-10-17T15:43:58.442Z,6.67
2022-10-17T15:49:11.908Z,7.05
2022-10-17T15:54:14.245Z,6.68
2022-10-17T15:59:19.069Z,6.89
2022-10-17T16:04:40.186Z,6.99
2022-10-17T16:09:42.333Z,6.74
2022-10-17T16:14:44.692Z,6.78
2022-10-17T16:20:09.002Z,7.01
2022-10-17T16:25:31.288Z,7.03
2022-10-17T16:30:51.776Z,7.19
2022-10-17T16:35:54.004Z,6.97
2022-10-17T16:40:56.616Z,6.83
2022-10-17T16:46:04.417Z,6.84
2022-10-17T16:51:25.660Z,7.45
2022-10-17T16:56:33.235Z,7.38
2022-10-17T17:01:37.061Z,7.12
2022-10-17T17:06:39.379Z,7.32
2022-10-17T17:11:41.673Z,7.10
2022-10-17T17:16:44.023Z,7.62
2022-10-17T17:21:51.113Z,6.96
2022-10-17T17:26:55.159Z,7.60
2022-10-17T17:31:57.356Z,7.26
2022-10-17T17:36:59.591Z,7.76
2022-10-17T17:42:01.930Z,7.17
2022-10-17T17:47:11.287Z,7.35
2022-10-17T17:52:13.688Z,7.49
2022-10-17T17:57:15.956Z,7.71
2022-10-17T18:02:18.228Z,7.52
2022-10-17T18:07:20.461Z,7.10
2022-10-17T18:12:47.010Z,7.41
2022-10-17T18:18:07.806Z,7.78
2022-10-17T18:23:10.902Z,7.79
2022-10-17T18:28:15.619Z,7.51
2022-10-17T18:33:17.912Z,7.77
2022-10-17T18:38:20.226Z,7.54
2022-10-17T18:43:22.455Z,7.43
2022-10-17T18:48:24.708Z,7.26
2022-10-17T18:53:27.086Z,7.32
2022-10-17T18:58:47.857Z,7.53
2022-10-17T19:04:08.571Z,7.41
2022-10-17T19:09:14.497Z,7.37
2022-10-17T19:14:17.091Z,7.59
2022-10-17T19:19:38.655Z,7.40
2022-10-17T19:24:40.842Z,7.40
2022-10-17T19:30:02.172Z,7.20
2022-10-17T19:35:06.162Z,6.93
2022-10-17T19:40:28.772Z,7.10
2022-10-17T19:45:31.218Z,7.21
2022-10-17T19:50:34.916Z,7.03
2022-10-17T19:55:38.895Z,6.87
2022-10-17T20:01:03.461Z,7.33
2022-10-17T20:06:06.029Z,7.01
2022-10-17T20:11:11.597Z,6.74
2022-10-17T20:16:20.675Z,7.10
2022-10-17T20:21:35.551Z,7.08
2022-10-17T20:26:39.464Z,6.30
2022-10-17T20:31:43.626Z,6.97
2022-10-17T20:36:46.348Z,7.01
2022-10-17T20:41:48.722Z,6.75
2022-10-17T20:47:01.884Z,6.96
2022-10-17T20:52:04.772Z,7.02
2022-10-17T20:57:07.002Z,6.67
2022-10-17T21:02:11.729Z,6.72
2022-10-17T21:07:14.057Z,6.85
2022-10-17T21:12:25.894Z,6.56
2022-10-17T21:17:33.764Z,6.88
2022-10-17T21:22:36.139Z,6.32
2022-10-17T21:27:38.428Z,6.68
2022-10-17T21:32:51.651Z,6.09
2022-10-17T21:37:54.032Z,6.31
2022-10-17T21:42:56.149Z,6.50
2022-10-17T21:48:18.590Z,6.65
2022-10-17T21:53:21.279Z,6.68
2022-10-17T21:58:42.148Z,6.61
2022-10-17T22:04:05.264Z,6.67
2022-10-17T22:09:27.106Z,6.47
2022-10-17T22:14:29.348Z,6.53
2022-10-17T22:19:31.615Z,6.79
2022-10-17T22:24:34.238Z,6.66
2022-10-17T22:29:36.679Z,5.87
2022-10-17T22:34:38.778Z,6.46
2022-10-17T22:39:40.844Z,6.54
2022-10-17T22:45:04.959Z,6.34
2022-10-17T22:50:07.267Z,6.29
2022-10-17T22:55:10.111Z,6.15
2022-10-17T23:00:12.497Z,6.67
2022-10-17T23:05:14.625Z,6.31
2022-10-17T23:10:16.772Z,6.51
2022-10-17T23:15:18.956Z,6.26
2022-10-17T23:20:21.176Z,6.41
2022-10-17T23:25:23.828Z,6.25
2022-10-17T23:30:26.189Z,6.61
2022-10-17T23:35:46.863Z,6.54
2022-10-17T23:41:07.951Z,6.71
2022-10-17T23:46:11.438Z,6.34
2022-10-17T23:51:32.368Z,6.62
2022-10-17T23:56:34.440Z,6.45
